createdAt,value
2023-05-16T00:02:06.675Z,101238.19
2023-05-16T00:05:10.570Z,101243.88
2023-05-16T00:08:12.403Z,101245.09
2023-05-16T00:11:13.998Z,101245.28
2023-05-16T00:14:15.771Z,101248.97
2023-05-16T00:17:17.662Z,101254.47
2023-05-16T00:20:23.466Z,101259.91
2023-05-16T00:23:25.516Z,101257.31
2023-05-16T00:26:27.135Z,101262.84
2023-05-16T00:29:28.738Z,101258.56
2023-05-16T00:32:30.370Z,101253.31
2023-05-16T00:35:31.922Z,101257.09
2023-05-16T00:38:33.724Z,101257.38
2023-05-16T00:41:35.419Z,101246.81
2023-05-16T00:44:36.965Z,101256.69
2023-05-16T00:47:38.574Z,101247.94
2023-05-16T00:50:40.578Z,101252.50
2023-05-16T00:53:42.412Z,101250.88
2023-05-16T00:56:44.143Z,101253.59
2023-05-16T00:59:46.913Z,101251.91
2023-05-16T01:02:48.908Z,101246.66
2023-05-16T01:05:50.634Z,101252.94
2023-05-16T01:08:52.232Z,101246.84
2023-05-16T01:12:06.412Z,101248.66
2023-05-16T01:15:19.813Z,101244.25
2023-05-16T01:18:29.228Z,101247.88
2023-05-16T01:22:00.006Z,101255.00
2023-05-16T01:25:01.511Z,101249.84
2023-05-16T01:28:04.214Z,101259.63
2023-05-16T01:31:06.092Z,101251.75
2023-05-16T01:34:08.125Z,101250.03
2023-05-16T01:37:19.777Z,101263.41
2023-05-16T01:40:42.929Z,101262.66
2023-05-16T01:43:48.507Z,101257.41
2023-05-16T01:46:56.779Z,101260.16
2023-05-16T01:50:15.725Z,101263.84
2023-05-16T01:53:22.762Z,101263.09
2023-05-16T01:56:26.825Z,101260.59
2023-05-16T01:59:28.949Z,101264.28
2023-05-16T02:02:31.717Z,101266.09
2023-05-16T02:05:33.423Z,101269.88
2023-05-16T02:08:35.112Z,101265.66
2023-05-16T02:11:36.706Z,101269.34
2023-05-16T02:14:38.251Z,101271.31
2023-05-16T02:17:39.904Z,101279.56
2023-05-16T02:20:41.533Z,101277.22
2023-05-16T02:23:43.280Z,101270.44
2023-05-16T02:26:44.837Z,101276.75
2023-05-16T02:29:46.356Z,101281.38
2023-05-16T02:32:49.267Z,101279.00
2023-05-16T02:35:50.859Z,101285.41
2023-05-16T02:38:52.506Z,101277.63
2023-05-16T02:41:54.047Z,101278.63
2023-05-16T02:44:55.585Z,101279.66
2023-05-16T02:47:57.231Z,101278.03
2023-05-16T02:50:58.814Z,101288.66
2023-05-16T02:54:01.192Z,101290.44
2023-05-16T02:57:02.808Z,101301.22
2023-05-16T03:00:06.152Z,101301.38
2023-05-16T03:03:08.541Z,101303.28
2023-05-16T03:06:10.217Z,101310.53
2023-05-16T03:09:11.775Z,101308.97
2023-05-16T03:12:13.407Z,101311.78
2023-05-16T03:15:15.034Z,101318.84
2023-05-16T03:18:16.681Z,101322.50
2023-05-16T03:21:18.227Z,101330.53
2023-05-16T03:24:21.745Z,101326.09
2023-05-16T03:27:23.413Z,101328.84
2023-05-16T03:30:25.834Z,101335.94
2023-05-16T03:33:27.338Z,101338.69
2023-05-16T03:36:28.984Z,101338.75
2023-05-16T03:39:30.515Z,101344.16
2023-05-16T03:42:32.368Z,101349.63
2023-05-16T03:45:34.043Z,101340.88
2023-05-16T03:48:35.683Z,101348.94
2023-05-16T03:51:37.412Z,101353.53
2023-05-16T03:54:38.918Z,101341.34
2023-05-16T03:57:41.254Z,101341.50
2023-05-16T04:00:42.853Z,101347.84
2023-05-16T04:03:44.607Z,101353.28
2023-05-16T04:06:46.166Z,101357.88
2023-05-16T04:09:47.694Z,101354.44
2023-05-16T04:12:49.349Z,101361.63
2023-05-16T04:15:50.930Z,101361.63
2023-05-16T04:18:53.027Z,101358.22
2023-05-16T04:21:54.639Z,101363.50
2023-05-16T04:24:57.114Z,101365.41
2023-05-16T04:27:58.668Z,101367.28
2023-05-16T04:31:02.072Z,101367.28
2023-05-16T04:34:03.857Z,101374.28
2023-05-16T04:37:09.572Z,101371.63
2023-05-16T04:40:13.085Z,101379.69
2023-05-16T04:43:14.675Z,101378.81
2023-05-16T04:46:16.312Z,101383.19
2023-05-16T04:49:18.192Z,101389.44
2023-05-16T04:52:19.718Z,101383.34
2023-05-16T04:55:21.361Z,101392.09
2023-05-16T04:58:24.270Z,101390.16
2023-05-16T05:01:25.911Z,101402.22
2023-05-16T05:04:27.575Z,101402.88
2023-05-16T05:07:29.271Z,101401.63
2023-05-16T05:10:31.340Z,101400.22
2023-05-16T05:13:32.894Z,101406.47
2023-05-16T05:16:34.925Z,101404.66
2023-05-16T05:19:36.602Z,101410.19
2023-05-16T05:22:38.267Z,101410.25
2023-05-16T05:25:39.967Z,101406.81
2023-05-16T05:28:47.793Z,101415.00
2023-05-16T05:31:52.434Z,101410.84
2023-05-16T05:34:54.179Z,101414.88
2023-05-16T05:37:55.738Z,101414.16
2023-05-16T05:40:57.531Z,101415.53
2023-05-16T05:43:59.100Z,101422.66
2023-05-16T05:47:00.869Z,101418.47
2023-05-16T05:50:04.590Z,101424.97
2023-05-16T05:53:06.351Z,101425.22
2023-05-16T05:56:08.001Z,101419.66
2023-05-16T05:59:09.615Z,101421.53
2023-05-16T06:02:11.786Z,101422.56
2023-05-16T06:05:13.418Z,101430.63
2023-05-16T06:08:15.037Z,101428.13
2023-05-16T06:11:16.584Z,101438.94
2023-05-16T06:14:18.225Z,101435.28
2023-05-16T06:17:19.820Z,101439.19
2023-05-16T06:20:21.490Z,101437.13
2023-05-16T06:23:23.028Z,101449.63
2023-05-16T06:26:24.813Z,101445.50
2023-05-16T06:29:26.422Z,101444.81
2023-05-16T06:32:28.064Z,101444.03
2023-05-16T06:35:29.842Z,101454.22
2023-05-16T06:38:31.595Z,101457.31
2023-05-16T06:41:33.175Z,101458.66
2023-05-16T06:44:34.954Z,101464.25
2023-05-16T06:47:36.648Z,101452.91
2023-05-16T06:50:38.338Z,101466.50
2023-05-16T06:53:39.985Z,101476.19
2023-05-16T06:56:41.574Z,101478.69
2023-05-16T06:59:43.487Z,101479.19
2023-05-16T07:02:45.150Z,101475.47
2023-05-16T07:05:46.851Z,101480.59
2023-05-16T07:08:48.494Z,101484.03
2023-05-16T07:11:50.055Z,101482.59
2023-05-16T07:14:51.681Z,101492.28
2023-05-16T07:17:53.288Z,101498.13
2023-05-16T07:20:54.968Z,101487.63
2023-05-16T07:23:57.656Z,101499.31
2023-05-16T07:26:59.262Z,101508.47
2023-05-16T07:30:01.031Z,101506.34
2023-05-16T07:33:02.657Z,101504.09
2023-05-16T07:36:16.308Z,101506.31
2023-05-16T07:39:19.079Z,101502.91
2023-05-16T07:42:20.778Z,101495.84
2023-05-16T07:45:22.445Z,101493.88
2023-05-16T07:48:24.006Z,101498.09
2023-05-16T07:51:25.579Z,101499.66
2023-05-16T07:54:27.146Z,101496.88
2023-05-16T07:57:29.126Z,101493.97
2023-05-16T08:00:30.894Z,101493.78
2023-05-16T08:03:32.680Z,101504.28
2023-05-16T08:06:34.680Z,101499.31
2023-05-16T08:09:36.309Z,101506.56
2023-05-16T08:12:38.335Z,101507.72
2023-05-16T08:15:40.053Z,101508.41
2023-05-16T08:18:42.632Z,101506.69
2023-05-16T08:21:44.246Z,101525.41
2023-05-16T08:24:46.050Z,101515.53
2023-05-16T08:27:49.678Z,101516.31
2023-05-16T08:30:51.262Z,101512.53
2023-05-16T08:33:52.863Z,101525.72
2023-05-16T08:36:54.872Z,101521.63
2023-05-16T08:39:56.490Z,101515.19
2023-05-16T08:42:58.364Z,101515.06
2023-05-16T08:46:00.004Z,101506.88
2023-05-16T08:49:04.617Z,101501.25
2023-05-16T08:52:08.888Z,101509.09
2023-05-16T08:55:12.115Z,101505.06
2023-05-16T08:58:14.908Z,101514.50
2023-05-16T09:01:16.929Z,101522.63
2023-05-16T09:04:19.087Z,101524.50
2023-05-16T09:07:21.017Z,101538.16
2023-05-16T09:10:22.782Z,101545.50
2023-05-16T09:13:27.447Z,101539.78
2023-05-16T09:16:29.061Z,101536.53
2023-05-16T09:19:41.374Z,101536.53
2023-05-16T09:22:59.854Z,101522.91
2023-05-16T09:26:01.657Z,101536.13
2023-05-16T09:29:13.398Z,101539.78
2023-05-16T09:32:17.381Z,101532.63
2023-05-16T09:35:39.084Z,101538.44
2023-05-16T09:38:41.746Z,101533.31
2023-05-16T09:41:43.423Z,101538.94
2023-05-16T09:44:54.572Z,101539.13
2023-05-16T09:48:01.714Z,101547.41
2023-05-16T09:51:06.607Z,101554.09
2023-05-16T09:54:08.965Z,101559.78
2023-05-16T09:57:10.671Z,101558.47
2023-05-16T10:00:13.522Z,101550.38
2023-05-16T10:03:15.655Z,101554.34
2023-05-16T10:06:18.088Z,101555.97
2023-05-16T10:09:22.474Z,101550.59
2023-05-16T10:12:30.367Z,101557.72
2023-05-16T10:15:32.407Z,101581.97
2023-05-16T10:18:35.817Z,101585.81
2023-05-16T10:21:40.173Z,101604.03
2023-05-16T10:24:49.175Z,101618.38
2023-05-16T10:27:51.661Z,101601.09
2023-05-16T10:30:54.744Z,101601.34
2023-05-16T10:33:57.749Z,101594.19
2023-05-16T10:37:00.663Z,101582.28
2023-05-16T10:40:05.909Z,101578.09
2023-05-16T10:43:08.953Z,101573.69
2023-05-16T10:46:11.535Z,101568.84
2023-05-16T10:49:24.319Z,101569.66
2023-05-16T10:52:35.033Z,101558.44
2023-05-16T10:55:36.692Z,101563.41
2023-05-16T10:58:38.620Z,101560.31
2023-05-16T11:01:41.388Z,101553.28
2023-05-16T11:04:48.810Z,101562.69
2023-05-16T11:08:04.960Z,101560.84
2023-05-16T11:11:41.896Z,101565.56
2023-05-16T11:14:45.164Z,101565.56
2023-05-16T11:17:47.788Z,101557.84
2023-05-16T11:20:52.943Z,101563.16
2023-05-16T11:24:30.082Z,101554.34
2023-05-16T11:27:36.215Z,101562.06
2023-05-16T11:30:43.143Z,101587.31
2023-05-16T11:33:48.011Z,101581.00
2023-05-16T11:36:49.962Z,101574.06
2023-05-16T11:39:52.014Z,101571.00
2023-05-16T11:42:53.621Z,101566.41
2023-05-16T11:45:56.150Z,101564.69
2023-05-16T11:48:57.920Z,101558.81
2023-05-16T11:51:59.604Z,101550.22
2023-05-16T11:55:01.867Z,101554.16
2023-05-16T11:58:03.473Z,101556.13
2023-05-16T12:01:05.638Z,101563.44
2023-05-16T12:04:14.785Z,101558.59
2023-05-16T12:07:16.641Z,101564.50
2023-05-16T12:10:18.233Z,101572.16
2023-05-16T12:13:21.780Z,101579.47
2023-05-16T12:16:23.913Z,101584.38
2023-05-16T12:19:26.869Z,101587.56
2023-05-16T12:22:28.936Z,101590.13
2023-05-16T12:25:33.072Z,101595.28
2023-05-16T12:28:35.672Z,101588.75
2023-05-16T12:31:40.558Z,101601.31
2023-05-16T12:34:50.430Z,101602.59
2023-05-16T12:37:53.162Z,101613.53
2023-05-16T12:40:58.584Z,101604.75
2023-05-16T12:44:07.822Z,101604.00
2023-05-16T12:47:13.786Z,101605.41
2023-05-16T12:50:17.629Z,101607.22
2023-05-16T12:53:19.474Z,101607.13
2023-05-16T12:56:21.642Z,101609.78
2023-05-16T12:59:23.203Z,101597.91
2023-05-16T13:02:26.439Z,101601.13
2023-05-16T13:05:28.191Z,101602.38
2023-05-16T13:08:30.203Z,101604.63
2023-05-16T13:11:31.809Z,101596.22
2023-05-16T13:14:33.404Z,101603.63
2023-05-16T13:17:35.833Z,101600.28
2023-05-16T13:20:38.992Z,101604.16
2023-05-16T13:23:40.655Z,101600.81
2023-05-16T13:26:42.259Z,101597.38
2023-05-16T13:29:44.738Z,101600.25
2023-05-16T13:32:46.397Z,101601.53
2023-05-16T13:35:48.129Z,101596.91
2023-05-16T13:38:49.800Z,101598.56
2023-05-16T13:41:51.976Z,101594.31
2023-05-16T13:44:53.593Z,101595.75
2023-05-16T13:47:55.811Z,101595.75
2023-05-16T13:50:57.411Z,101581.41
2023-05-16T13:53:58.999Z,101578.19
2023-05-16T13:57:02.321Z,101594.91
2023-05-16T14:00:35.418Z,101592.22
2023-05-16T14:03:36.613Z,101589.00
2023-05-16T14:06:38.347Z,101607.97
2023-05-16T14:09:39.929Z,101609.03
2023-05-16T14:12:42.307Z,101616.53
2023-05-16T14:15:43.965Z,101607.22
2023-05-16T14:18:45.877Z,101607.13
2023-05-16T14:21:47.558Z,101623.31
2023-05-16T14:24:49.136Z,101623.44
2023-05-16T14:27:51.162Z,101623.31
2023-05-16T14:30:52.815Z,101618.88
2023-05-16T14:33:54.399Z,101620.50
2023-05-16T14:36:56.106Z,101617.84
2023-05-16T14:39:57.786Z,101614.50
2023-05-16T14:42:59.356Z,101615.88
2023-05-16T14:46:01.013Z,101628.03
2023-05-16T14:49:02.714Z,101634.13
2023-05-16T14:52:04.533Z,101645.06
2023-05-16T14:55:06.766Z,101646.41
2023-05-16T14:58:08.643Z,101650.38
2023-05-16T15:01:10.370Z,101643.44
2023-05-16T15:04:12.064Z,101644.13
2023-05-16T15:07:13.650Z,101649.41
2023-05-16T15:10:15.323Z,101642.88
2023-05-16T15:13:16.911Z,101642.13
2023-05-16T15:16:18.536Z,101652.25
2023-05-16T15:19:20.152Z,101666.06
2023-05-16T15:22:21.718Z,101669.50
2023-05-16T15:25:23.323Z,101681.91
2023-05-16T15:28:24.921Z,101674.47
2023-05-16T15:31:27.107Z,101676.56
2023-05-16T15:34:28.800Z,101681.22
2023-05-16T15:37:30.372Z,101674.25
2023-05-16T15:40:32.011Z,101670.81
2023-05-16T15:43:33.544Z,101674.53
2023-05-16T15:46:35.205Z,101671.19
2023-05-16T15:49:36.976Z,101666.97
2023-05-16T15:52:38.668Z,101668.97
2023-05-16T15:55:40.520Z,101664.41
2023-05-16T15:58:42.188Z,101660.31
2023-05-16T16:01:44.113Z,101655.00
2023-05-16T16:04:46.150Z,101654.50
2023-05-16T16:07:47.684Z,101652.88
2023-05-16T16:10:49.372Z,101654.78
2023-05-16T16:13:51.389Z,101663.03
2023-05-16T16:16:53.285Z,101663.66
2023-05-16T16:19:54.840Z,101657.28
2023-05-16T16:22:56.551Z,101659.97
2023-05-16T16:25:58.358Z,101648.22
2023-05-16T16:29:00.293Z,101661.47
2023-05-16T16:32:01.901Z,101672.38
2023-05-16T16:35:05.458Z,101667.31
2023-05-16T16:38:07.527Z,101657.84
2023-05-16T16:41:09.298Z,101660.81
2023-05-16T16:44:10.950Z,101668.25
2023-05-16T16:47:12.715Z,101665.84
2023-05-16T16:50:14.479Z,101673.19
2023-05-16T16:53:16.267Z,101683.19
2023-05-16T16:56:17.861Z,101681.56
2023-05-16T16:59:19.622Z,101673.94
2023-05-16T17:02:21.418Z,101675.91
2023-05-16T17:05:23.101Z,101667.13
2023-05-16T17:08:25.083Z,101677.81
2023-05-16T17:11:26.981Z,101677.81
2023-05-16T17:14:28.564Z,101681.25
2023-05-16T17:17:30.239Z,101688.97
2023-05-16T17:20:31.956Z,101692.50
2023-05-16T17:23:33.532Z,101694.41
2023-05-16T17:26:35.815Z,101702.59
2023-05-16T17:29:37.521Z,101698.31
2023-05-16T17:32:40.062Z,101707.28
2023-05-16T17:35:41.789Z,101703.91
2023-05-16T17:38:43.358Z,101703.44
2023-05-16T17:41:45.013Z,101711.63
2023-05-16T17:44:46.628Z,101707.31
2023-05-16T17:47:48.766Z,101712.94
2023-05-16T17:50:50.500Z,101718.53
2023-05-16T17:53:52.696Z,101715.25
2023-05-16T17:56:54.751Z,101725.09
2023-05-16T17:59:56.375Z,101719.88
2023-05-16T18:02:58.069Z,101724.34
2023-05-16T18:05:59.946Z,101727.88
2023-05-16T18:09:05.202Z,101722.44
2023-05-16T18:12:07.168Z,101723.41
2023-05-16T18:15:10.691Z,101724.34
2023-05-16T18:18:12.787Z,101724.72
2023-05-16T18:21:14.485Z,101732.94
2023-05-16T18:24:16.562Z,101736.66
2023-05-16T18:27:18.189Z,101743.03
2023-05-16T18:30:19.808Z,101745.78
2023-05-16T18:33:21.758Z,101753.13
2023-05-16T18:36:23.474Z,101745.88
2023-05-16T18:39:25.066Z,101740.56
2023-05-16T18:42:27.353Z,101747.69
2023-05-16T18:45:30.199Z,101751.28
2023-05-16T18:48:33.369Z,101746.16
2023-05-16T18:51:36.204Z,101758.78
2023-05-16T18:54:39.016Z,101748.28
2023-05-16T18:57:40.630Z,101752.13
2023-05-16T19:00:42.234Z,101765.66
2023-05-16T19:03:43.954Z,101762.19
2023-05-16T19:06:46.344Z,101765.88
2023-05-16T19:09:48.077Z,101771.31
2023-05-16T19:12:49.752Z,101771.41
2023-05-16T19:15:53.379Z,101771.47
2023-05-16T19:18:55.228Z,101761.53
2023-05-16T19:21:56.967Z,101761.72
2023-05-16T19:24:58.581Z,101775.47
2023-05-16T19:28:00.229Z,101771.00
2023-05-16T19:31:01.923Z,101775.00
2023-05-16T19:34:03.599Z,101774.81
2023-05-16T19:37:05.514Z,101776.81
2023-05-16T19:40:07.964Z,101781.31
2023-05-16T19:43:09.563Z,101789.59
2023-05-16T19:46:13.471Z,101784.88
2023-05-16T19:49:18.876Z,101795.97
2023-05-16T19:52:22.093Z,101794.63
2023-05-16T19:55:25.271Z,101792.38
2023-05-16T19:58:26.958Z,101789.06
2023-05-16T20:01:28.543Z,101784.06
2023-05-16T20:04:30.350Z,101786.06
2023-05-16T20:07:31.979Z,101789.06
2023-05-16T20:10:34.909Z,101783.91
2023-05-16T20:13:36.512Z,101787.53
2023-05-16T20:16:38.131Z,101794.72
2023-05-16T20:19:43.916Z,101791.50
2023-05-16T20:22:45.747Z,101797.16
2023-05-16T20:25:47.376Z,101791.09
2023-05-16T20:28:49.004Z,101785.09
2023-05-16T20:31:50.567Z,101783.47
2023-05-16T20:34:52.313Z,101783.53
2023-05-16T20:37:54.089Z,101780.09
2023-05-16T20:40:56.309Z,101791.78
2023-05-16T20:43:57.967Z,101790.91
2023-05-16T20:46:59.592Z,101800.75
2023-05-16T20:50:01.190Z,101806.91
2023-05-16T20:53:03.462Z,101812.25
2023-05-16T20:56:05.434Z,101808.81
2023-05-16T20:59:06.977Z,101813.38
2023-05-16T21:02:11.768Z,101811.56
2023-05-16T21:05:24.133Z,101808.97
2023-05-16T21:08:27.391Z,101813.28
2023-05-16T21:11:29.245Z,101803.41
2023-05-16T21:14:30.831Z,101809.59
2023-05-16T21:17:32.509Z,101805.88
2023-05-16T21:20:34.213Z,101809.41
2023-05-16T21:23:35.916Z,101809.41
2023-05-16T21:26:37.591Z,101803.31
2023-05-16T21:29:39.201Z,101802.44
2023-05-16T21:32:40.905Z,101801.59
2023-05-16T21:35:42.547Z,101810.59
2023-05-16T21:38:44.253Z,101810.69
2023-05-16T21:41:45.819Z,101807.25
2023-05-16T21:44:47.395Z,101812.75
2023-05-16T21:47:49.022Z,101814.66
2023-05-16T21:50:51.049Z,101804.22
2023-05-16T21:53:52.654Z,101803.53
2023-05-16T21:56:54.250Z,101808.09
2023-05-16T21:59:55.841Z,101812.63
2023-05-16T22:02:57.480Z,101815.31
2023-05-16T22:05:59.216Z,101817.09
2023-05-16T22:09:01.851Z,101812.69
2023-05-16T22:12:03.649Z,101813.72
2023-05-16T22:15:05.789Z,101805.91
2023-05-16T22:18:07.466Z,101810.44
2023-05-16T22:21:09.149Z,101806.13
2023-05-16T22:24:11.853Z,101803.56
2023-05-16T22:27:13.525Z,101809.91
2023-05-16T22:30:15.157Z,101805.69
2023-05-16T22:33:16.898Z,101797.00
2023-05-16T22:36:18.549Z,101792.84
2023-05-16T22:39:20.139Z,101801.78
2023-05-16T22:42:21.924Z,101800.06
2023-05-16T22:45:23.501Z,101798.50
2023-05-16T22:48:25.165Z,101794.19
2023-05-16T22:51:26.862Z,101799.97
2023-05-16T22:54:28.399Z,101793.06
2023-05-16T22:57:29.976Z,101800.91
2023-05-16T23:00:31.560Z,101794.09
2023-05-16T23:03:34.258Z,101797.16
2023-05-16T23:06:36.097Z,101795.94
2023-05-16T23:09:37.782Z,101798.13
2023-05-16T23:12:39.531Z,101799.41
2023-05-16T23:15:41.220Z,101801.69
2023-05-16T23:18:42.990Z,101806.50
2023-05-16T23:21:44.779Z,101816.41
2023-05-16T23:24:46.348Z,101827.38
2023-05-16T23:27:48.098Z,101819.63
2023-05-16T23:30:49.894Z,101824.38
2023-05-16T23:33:51.493Z,101824.63
2023-05-16T23:36:53.096Z,101827.53
2023-05-16T23:39:54.677Z,101829.56
2023-05-16T23:42:56.482Z,101835.03
2023-05-16T23:45:58.032Z,101841.44
2023-05-16T23:48:59.714Z,101847.84
2023-05-16T23:52:01.395Z,101841.84
2023-05-16T23:55:03.022Z,101855.38
2023-05-16T23:58:04.676Z,101852.06
